sensor_id;sensor_type;location;lat;lon;timestamp;temperature;humidity
15364;DHT22;7781;49.690;6.472;2023-09-12T00:01:36;20.20;99.90
15364;DHT22;7781;49.690;6.472;2023-09-12T00:04:05;20.20;99.90
15364;DHT22;7781;49.690;6.472;2023-09-12T00:06:36;20.10;99.90
15364;DHT22;7781;49.690;6.472;2023-09-12T00:09:06;20.10;99.90
15364;DHT22;7781;49.690;6.472;2023-09-12T00:11:36;20.00;99.90
15364;DHT22;7781;49.690;6.472;2023-09-12T00:14:06;19.90;99.90
15364;DHT22;7781;49.690;6.472;2023-09-12T00:16:36;19.90;99.90
15364;DHT22;7781;49.690;6.472;2023-09-12T00:19:04;19.80;99.90
15364;DHT22;7781;49.690;6.472;2023-09-12T00:21:36;19.80;99.90
15364;DHT22;7781;49.690;6.472;2023-09-12T00:24:05;19.70;99.90
15364;DHT22;7781;49.690;6.472;2023-09-12T00:26:35;19.70;99.90
15364;DHT22;7781;49.690;6.472;2023-09-12T00:29:07;19.70;99.90
15364;DHT22;7781;49.690;6.472;2023-09-12T00:31:35;19.70;99.90
15364;DHT22;7781;49.690;6.472;2023-09-12T00:34:07;19.70;99.90
15364;DHT22;7781;49.690;6.472;2023-09-12T00:36:37;19.60;99.90
15364;DHT22;7781;49.690;6.472;2023-09-12T00:39:07;19.60;99.90
15364;DHT22;7781;49.690;6.472;2023-09-12T00:41:36;19.50;99.90
15364;DHT22;7781;49.690;6.472;2023-09-12T00:44:06;19.50;99.90
15364;DHT22;7781;49.690;6.472;2023-09-12T00:46:37;19.50;99.90
15364;DHT22;7781;49.690;6.472;2023-09-12T00:49:08;19.40;99.90
15364;DHT22;7781;49.690;6.472;2023-09-12T00:51:39;19.30;99.90
15364;DHT22;7781;49.690;6.472;2023-09-12T00:54:08;19.20;99.90
15364;DHT22;7781;49.690;6.472;2023-09-12T00:56:37;19.10;99.90
15364;DHT22;7781;49.690;6.472;2023-09-12T00:59:06;19.10;99.90
15364;DHT22;7781;49.690;6.472;2023-09-12T01:01:36;19.00;99.90
15364;DHT22;7781;49.690;6.472;2023-09-12T01:04:05;18.90;99.90
15364;DHT22;7781;49.690;6.472;2023-09-12T01:06:48;18.80;99.90
15364;DHT22;7781;49.690;6.472;2023-09-12T01:09:17;18.80;99.90
15364;DHT22;7781;49.690;6.472;2023-09-12T01:11:46;18.70;99.90
15364;DHT22;7781;49.690;6.472;2023-09-12T01:14:16;18.60;99.90
15364;DHT22;7781;49.690;6.472;2023-09-12T01:16:45;18.50;99.90
15364;DHT22;7781;49.690;6.472;2023-09-12T01:19:15;18.40;99.90
15364;DHT22;7781;49.690;6.472;2023-09-12T01:22:07;18.40;99.90
15364;DHT22;7781;49.690;6.472;2023-09-12T01:25:07;18.40;99.90
15364;DHT22;7781;49.690;6.472;2023-09-12T01:27:40;18.40;99.90
15364;DHT22;7781;49.690;6.472;2023-09-12T01:30:10;18.30;99.90
15364;DHT22;7781;49.690;6.472;2023-09-12T01:32:41;18.20;99.90
15364;DHT22;7781;49.690;6.472;2023-09-12T01:35:13;18.20;99.90
15364;DHT22;7781;49.690;6.472;2023-09-12T01:37:41;18.20;99.90
15364;DHT22;7781;49.690;6.472;2023-09-12T01:40:10;18.20;99.90
15364;DHT22;7781;49.690;6.472;2023-09-12T01:42:43;18.20;99.90
15364;DHT22;7781;49.690;6.472;2023-09-12T01:45:15;18.20;99.90
15364;DHT22;7781;49.690;6.472;2023-09-12T01:47:51;18.10;99.90
15364;DHT22;7781;49.690;6.472;2023-09-12T01:50:20;18.10;99.90
15364;DHT22;7781;49.690;6.472;2023-09-12T01:52:49;18.00;99.90
15364;DHT22;7781;49.690;6.472;2023-09-12T01:55:18;17.90;99.90
15364;DHT22;7781;49.690;6.472;2023-09-12T01:57:49;17.90;99.90
15364;DHT22;7781;49.690;6.472;2023-09-12T02:00:18;17.90;99.90
15364;DHT22;7781;49.690;6.472;2023-09-12T02:02:47;17.90;99.90
15364;DHT22;7781;49.690;6.472;2023-09-12T02:05:19;17.80;99.90
15364;DHT22;7781;49.690;6.472;2023-09-12T02:07:49;17.80;99.90
15364;DHT22;7781;49.690;6.472;2023-09-12T02:10:19;17.80;99.90
15364;DHT22;7781;49.690;6.472;2023-09-12T02:12:49;17.80;99.90
15364;DHT22;7781;49.690;6.472;2023-09-12T02:15:17;17.80;99.90
15364;DHT22;7781;49.690;6.472;2023-09-12T02:17:47;17.80;99.90
15364;DHT22;7781;49.690;6.472;2023-09-12T02:20:20;17.70;99.90
15364;DHT22;7781;49.690;6.472;2023-09-12T02:22:53;17.60;99.90
15364;DHT22;7781;49.690;6.472;2023-09-12T02:25:21;17.50;99.90
15364;DHT22;7781;49.690;6.472;2023-09-12T02:27:51;17.60;99.90
15364;DHT22;7781;49.690;6.472;2023-09-12T02:30:20;17.60;99.90
15364;DHT22;7781;49.690;6.472;2023-09-12T02:32:48;17.50;99.90
15364;DHT22;7781;49.690;6.472;2023-09-12T02:35:16;17.50;99.90
15364;DHT22;7781;49.690;6.472;2023-09-12T02:37:46;17.50;99.90
15364;DHT22;7781;49.690;6.472;2023-09-12T02:40:14;17.60;99.90
15364;DHT22;7781;49.690;6.472;2023-09-12T02:42:45;17.60;99.90
15364;DHT22;7781;49.690;6.472;2023-09-12T02:45:15;17.60;99.90
15364;DHT22;7781;49.690;6.472;2023-09-12T02:47:44;17.60;99.90
15364;DHT22;7781;49.690;6.472;2023-09-12T02:50:13;17.80;99.90
15364;DHT22;7781;49.690;6.472;2023-09-12T02:52:43;17.90;99.90
15364;DHT22;7781;49.690;6.472;2023-09-12T02:55:12;17.90;99.90
15364;DHT22;7781;49.690;6.472;2023-09-12T02:57:41;18.00;99.90
15364;DHT22;7781;49.690;6.472;2023-09-12T03:00:12;18.00;99.90
15364;DHT22;7781;49.690;6.472;2023-09-12T03:02:42;18.10;99.90
15364;DHT22;7781;49.690;6.472;2023-09-12T03:05:12;18.20;99.90
15364;DHT22;7781;49.690;6.472;2023-09-12T03:07:41;18.10;99.90
15364;DHT22;7781;49.690;6.472;2023-09-12T03:10:10;18.20;99.90
15364;DHT22;7781;49.690;6.472;2023-09-12T03:12:39;18.20;99.90
15364;DHT22;7781;49.690;6.472;2023-09-12T03:15:09;18.30;99.90
15364;DHT22;7781;49.690;6.472;2023-09-12T03:17:41;18.30;99.90
15364;DHT22;7781;49.690;6.472;2023-09-12T03:20:18;18.30;99.90
15364;DHT22;7781;49.690;6.472;2023-09-12T03:22:47;18.30;99.90
15364;DHT22;7781;49.690;6.472;2023-09-12T03:25:17;18.30;99.90
15364;DHT22;7781;49.690;6.472;2023-09-12T03:27:47;18.30;99.90
15364;DHT22;7781;49.690;6.472;2023-09-12T03:30:20;18.20;99.90
15364;DHT22;7781;49.690;6.472;2023-09-12T03:32:50;18.10;99.90
15364;DHT22;7781;49.690;6.472;2023-09-12T03:35:20;18.20;99.90
15364;DHT22;7781;49.690;6.472;2023-09-12T03:37:48;18.30;99.90
15364;DHT22;7781;49.690;6.472;2023-09-12T03:40:20;18.40;99.90
15364;DHT22;7781;49.690;6.472;2023-09-12T03:42:52;18.60;99.90
15364;DHT22;7781;49.690;6.472;2023-09-12T03:45:21;18.60;99.90
15364;DHT22;7781;49.690;6.472;2023-09-12T03:47:54;18.50;99.90
15364;DHT22;7781;49.690;6.472;2023-09-12T03:50:25;18.50;99.90
15364;DHT22;7781;49.690;6.472;2023-09-12T03:53:02;18.50;99.90
15364;DHT22;7781;49.690;6.472;2023-09-12T03:55:42;18.70;99.90
15364;DHT22;7781;49.690;6.472;2023-09-12T03:58:10;18.70;99.90
15364;DHT22;7781;49.690;6.472;2023-09-12T04:00:40;18.70;99.90
15364;DHT22;7781;49.690;6.472;2023-09-12T04:03:11;18.60;99.90
15364;DHT22;7781;49.690;6.472;2023-09-12T04:05:40;18.50;99.90
15364;DHT22;7781;49.690;6.472;2023-09-12T04:08:08;18.40;99.90
15364;DHT22;7781;49.690;6.472;2023-09-12T04:10:38;18.30;99.90
15364;DHT22;7781;49.690;6.472;2023-09-12T04:13:10;18.30;99.90
15364;DHT22;7781;49.690;6.472;2023-09-12T04:15:38;18.30;99.90
15364;DHT22;7781;49.690;6.472;2023-09-12T04:18:12;18.20;99.90
15364;DHT22;7781;49.690;6.472;2023-09-12T04:20:42;18.00;99.90
15364;DHT22;7781;49.690;6.472;2023-09-12T04:23:11;17.90;99.90
15364;DHT22;7781;49.690;6.472;2023-09-12T04:25:42;17.90;99.90
15364;DHT22;7781;49.690;6.472;2023-09-12T04:28:11;17.90;99.90
15364;DHT22;7781;49.690;6.472;2023-09-12T04:30:39;17.90;99.90
15364;DHT22;7781;49.690;6.472;2023-09-12T04:33:16;17.80;99.90
15364;DHT22;7781;49.690;6.472;2023-09-12T04:35:46;17.80;99.90
15364;DHT22;7781;49.690;6.472;2023-09-12T04:38:15;17.70;99.90
15364;DHT22;7781;49.690;6.472;2023-09-12T04:40:53;17.60;99.90
15364;DHT22;7781;49.690;6.472;2023-09-12T04:43:25;17.50;99.90
15364;DHT22;7781;49.690;6.472;2023-09-12T04:45:53;17.50;99.90
15364;DHT22;7781;49.690;6.472;2023-09-12T04:48:24;17.40;99.90
15364;DHT22;7781;49.690;6.472;2023-09-12T04:50:56;17.30;99.90
15364;DHT22;7781;49.690;6.472;2023-09-12T04:53:24;17.30;99.90
15364;DHT22;7781;49.690;6.472;2023-09-12T04:55:53;17.40;99.90
15364;DHT22;7781;49.690;6.472;2023-09-12T04:58:22;17.30;99.90
15364;DHT22;7781;49.690;6.472;2023-09-12T05:00:51;17.30;99.90
15364;DHT22;7781;49.690;6.472;2023-09-12T05:03:21;17.30;99.90
15364;DHT22;7781;49.690;6.472;2023-09-12T05:05:55;17.20;99.90
15364;DHT22;7781;49.690;6.472;2023-09-12T05:08:25;17.20;99.90
15364;DHT22;7781;49.690;6.472;2023-09-12T05:10:55;17.20;99.90
15364;DHT22;7781;49.690;6.472;2023-09-12T05:13:25;17.10;99.90
15364;DHT22;7781;49.690;6.472;2023-09-12T05:15:54;17.10;99.90
15364;DHT22;7781;49.690;6.472;2023-09-12T05:18:24;17.10;99.90
15364;DHT22;7781;49.690;6.472;2023-09-12T05:20:55;17.00;99.90
15364;DHT22;7781;49.690;6.472;2023-09-12T05:23:24;17.10;99.90
15364;DHT22;7781;49.690;6.472;2023-09-12T05:25:55;17.10;99.90
15364;DHT22;7781;49.690;6.472;2023-09-12T05:28:23;17.10;99.90
15364;DHT22;7781;49.690;6.472;2023-09-12T05:30:52;17.20;99.90
15364;DHT22;7781;49.690;6.472;2023-09-12T05:33:23;17.20;99.90
15364;DHT22;7781;49.690;6.472;2023-09-12T05:46:39;17.20;99.90
15364;DHT22;7781;49.690;6.472;2023-09-12T05:49:07;17.30;99.90
15364;DHT22;7781;49.690;6.472;2023-09-12T05:51:36;17.40;99.90
15364;DHT22;7781;49.690;6.472;2023-09-12T05:54:07;17.50;99.90
15364;DHT22;7781;49.690;6.472;2023-09-12T05:56:37;17.60;99.90
15364;DHT22;7781;49.690;6.472;2023-09-12T05:59:06;17.50;99.90
15364;DHT22;7781;49.690;6.472;2023-09-12T06:01:34;17.60;99.90
15364;DHT22;7781;49.690;6.472;2023-09-12T06:04:05;17.60;99.90
15364;DHT22;7781;49.690;6.472;2023-09-12T06:06:34;17.60;99.90
15364;DHT22;7781;49.690;6.472;2023-09-12T06:09:03;17.60;99.90
15364;DHT22;7781;49.690;6.472;2023-09-12T06:11:32;17.60;99.90
15364;DHT22;7781;49.690;6.472;2023-09-12T06:14:02;17.60;99.90
15364;DHT22;7781;49.690;6.472;2023-09-12T06:16:36;17.70;99.90
15364;DHT22;7781;49.690;6.472;2023-09-12T06:19:09;17.70;99.90
15364;DHT22;7781;49.690;6.472;2023-09-12T06:21:38;17.70;99.90
15364;DHT22;7781;49.690;6.472;2023-09-12T06:24:11;17.80;99.90
15364;DHT22;7781;49.690;6.472;2023-09-12T06:26:41;17.80;99.90
15364;DHT22;7781;49.690;6.472;2023-09-12T06:29:09;17.80;99.90
15364;DHT22;7781;49.690;6.472;2023-09-12T06:31:38;17.80;99.90
15364;DHT22;7781;49.690;6.472;2023-09-12T06:34:10;17.80;99.90
15364;DHT22;7781;49.690;6.472;2023-09-12T06:36:39;17.90;99.90
15364;DHT22;7781;49.690;6.472;2023-09-12T06:39:12;18.00;99.90
15364;DHT22;7781;49.690;6.472;2023-09-12T06:41:41;18.00;99.90
15364;DHT22;7781;49.690;6.472;2023-09-12T06:44:10;18.10;99.90
15364;DHT22;7781;49.690;6.472;2023-09-12T06:46:39;18.20;99.90
15364;DHT22;7781;49.690;6.472;2023-09-12T06:49:08;18.30;99.90
15364;DHT22;7781;49.690;6.472;2023-09-12T06:51:38;18.40;99.90
15364;DHT22;7781;49.690;6.472;2023-09-12T06:54:08;18.50;99.90
15364;DHT22;7781;49.690;6.472;2023-09-12T06:56:38;18.60;99.90
15364;DHT22;7781;49.690;6.472;2023-09-12T06:59:10;18.70;99.90
15364;DHT22;7781;49.690;6.472;2023-09-12T07:01:39;18.80;99.90
15364;DHT22;7781;49.690;6.472;2023-09-12T07:04:08;19.00;99.90
15364;DHT22;7781;49.690;6.472;2023-09-12T07:06:38;19.30;99.90
15364;DHT22;7781;49.690;6.472;2023-09-12T07:09:06;19.70;99.90
15364;DHT22;7781;49.690;6.472;2023-09-12T07:11:38;20.10;99.90
15364;DHT22;7781;49.690;6.472;2023-09-12T07:14:06;20.30;99.90
15364;DHT22;7781;49.690;6.472;2023-09-12T07:16:37;20.70;99.90
15364;DHT22;7781;49.690;6.472;2023-09-12T07:19:06;21.30;99.90
15364;DHT22;7781;49.690;6.472;2023-09-12T07:21:34;21.80;99.90
15364;DHT22;7781;49.690;6.472;2023-09-12T07:24:07;22.40;99.90
15364;DHT22;7781;49.690;6.472;2023-09-12T07:26:36;22.80;99.90
15364;DHT22;7781;49.690;6.472;2023-09-12T07:29:05;23.10;99.90
15364;DHT22;7781;49.690;6.472;2023-09-12T07:31:34;23.40;99.90
15364;DHT22;7781;49.690;6.472;2023-09-12T07:34:02;23.70;99.90
15364;DHT22;7781;49.690;6.472;2023-09-12T07:36:35;24.00;99.90
15364;DHT22;7781;49.690;6.472;2023-09-12T07:39:07;24.20;99.90
15364;DHT22;7781;49.690;6.472;2023-09-12T07:41:36;24.30;96.60
15364;DHT22;7781;49.690;6.472;2023-09-12T07:44:06;24.50;99.90
15364;DHT22;7781;49.690;6.472;2023-09-12T07:46:38;24.80;83.30
15364;DHT22;7781;49.690;6.472;2023-09-12T07:49:07;25.10;12.10
15364;DHT22;7781;49.690;6.472;2023-09-12T07:51:37;25.20;1.00
15364;DHT22;7781;49.690;6.472;2023-09-12T07:54:08;25.30;99.90
15364;DHT22;7781;49.690;6.472;2023-09-12T07:56:37;25.50;1.00
15364;DHT22;7781;49.690;6.472;2023-09-12T07:59:05;25.80;99.90
15364;DHT22;7781;49.690;6.472;2023-09-12T08:01:34;26.00;1.00
15364;DHT22;7781;49.690;6.472;2023-09-12T08:04:04;26.10;1.00
15364;DHT22;7781;49.690;6.472;2023-09-12T08:06:35;26.30;1.00
15364;DHT22;7781;49.690;6.472;2023-09-12T08:12:14;26.60;99.90
15364;DHT22;7781;49.690;6.472;2023-09-12T08:14:47;26.80;99.90
15364;DHT22;7781;49.690;6.472;2023-09-12T08:17:18;26.90;99.90
15364;DHT22;7781;49.690;6.472;2023-09-12T08:19:46;26.90;34.40
15364;DHT22;7781;49.690;6.472;2023-09-12T08:22:16;26.80;1.00
15364;DHT22;7781;49.690;6.472;2023-09-12T08:24:47;26.80;27.80
15364;DHT22;7781;49.690;6.472;2023-09-12T08:27:15;26.90;1.00
15364;DHT22;7781;49.690;6.472;2023-09-12T08:29:44;27.00;1.00
15364;DHT22;7781;49.690;6.472;2023-09-12T08:32:15;27.20;1.00
15364;DHT22;7781;49.690;6.472;2023-09-12T08:34:45;27.20;1.00
15364;DHT22;7781;49.690;6.472;2023-09-12T08:37:14;27.20;99.90
15364;DHT22;7781;49.690;6.472;2023-09-12T08:39:44;27.10;99.90
15364;DHT22;7781;49.690;6.472;2023-09-12T08:42:16;27.10;99.90
15364;DHT22;7781;49.690;6.472;2023-09-12T08:44:46;27.20;99.90
15364;DHT22;7781;49.690;6.472;2023-09-12T08:47:17;27.30;99.90
15364;DHT22;7781;49.690;6.472;2023-09-12T08:49:48;27.20;88.40
15364;DHT22;7781;49.690;6.472;2023-09-12T08:52:18;26.80;25.00
15364;DHT22;7781;49.690;6.472;2023-09-12T08:54:47;26.60;99.90
15364;DHT22;7781;49.690;6.472;2023-09-12T08:57:17;26.30;99.90
15364;DHT22;7781;49.690;6.472;2023-09-12T08:59:46;26.20;99.90
15364;DHT22;7781;49.690;6.472;2023-09-12T09:02:15;26.10;99.90
15364;DHT22;7781;49.690;6.472;2023-09-12T09:04:46;26.10;1.00
15364;DHT22;7781;49.690;6.472;2023-09-12T09:07:19;26.00;1.00
15364;DHT22;7781;49.690;6.472;2023-09-12T09:09:49;25.80;1.00
15364;DHT22;7781;49.690;6.472;2023-09-12T09:12:22;25.80;19.30
15364;DHT22;7781;49.690;6.472;2023-09-12T09:14:51;25.80;99.90
15364;DHT22;7781;49.690;6.472;2023-09-12T09:17:19;25.80;99.90
15364;DHT22;7781;49.690;6.472;2023-09-12T09:20:02;25.90;99.90
15364;DHT22;7781;49.690;6.472;2023-09-12T09:22:36;25.80;9.50
15364;DHT22;7781;49.690;6.472;2023-09-12T09:25:10;25.80;99.90
15364;DHT22;7781;49.690;6.472;2023-09-12T09:27:43;25.60;14.90
15364;DHT22;7781;49.690;6.472;2023-09-12T09:30:13;25.50;99.90
15364;DHT22;7781;49.690;6.472;2023-09-12T09:32:43;25.50;1.00
15364;DHT22;7781;49.690;6.472;2023-09-12T09:35:12;25.40;1.00
15364;DHT22;7781;49.690;6.472;2023-09-12T09:37:41;25.30;99.90
15364;DHT22;7781;49.690;6.472;2023-09-12T09:40:10;25.30;1.00
15364;DHT22;7781;49.690;6.472;2023-09-12T09:42:39;25.30;4.10
15364;DHT22;7781;49.690;6.472;2023-09-12T09:45:12;25.30;99.90
15364;DHT22;7781;49.690;6.472;2023-09-12T09:47:43;25.30;1.00
15364;DHT22;7781;49.690;6.472;2023-09-12T09:50:14;25.40;1.00
15364;DHT22;7781;49.690;6.472;2023-09-12T09:52:43;25.50;1.00
15364;DHT22;7781;49.690;6.472;2023-09-12T09:55:13;25.50;1.00
15364;DHT22;7781;49.690;6.472;2023-09-12T09:57:43;25.60;1.00
15364;DHT22;7781;49.690;6.472;2023-09-12T10:00:14;25.60;1.00
15364;DHT22;7781;49.690;6.472;2023-09-12T10:02:45;25.70;99.90
15364;DHT22;7781;49.690;6.472;2023-09-12T10:05:16;25.60;99.90
15364;DHT22;7781;49.690;6.472;2023-09-12T10:07:49;25.60;99.90
15364;DHT22;7781;49.690;6.472;2023-09-12T10:10:20;25.60;44.10
15364;DHT22;7781;49.690;6.472;2023-09-12T10:12:53;25.60;1.00
15364;DHT22;7781;49.690;6.472;2023-09-12T10:15:29;25.60;1.00
15364;DHT22;7781;49.690;6.472;2023-09-12T10:18:02;25.60;1.00
15364;DHT22;7781;49.690;6.472;2023-09-12T10:20:47;25.60;1.00
15364;DHT22;7781;49.690;6.472;2023-09-12T10:23:20;25.40;8.30
15364;DHT22;7781;49.690;6.472;2023-09-12T10:25:51;25.40;1.00
15364;DHT22;7781;49.690;6.472;2023-09-12T10:28:24;25.30;1.00
15364;DHT22;7781;49.690;6.472;2023-09-12T10:30:56;25.30;99.90
15364;DHT22;7781;49.690;6.472;2023-09-12T10:33:27;25.30;1.00
15364;DHT22;7781;49.690;6.472;2023-09-12T10:35:59;25.40;1.00
15364;DHT22;7781;49.690;6.472;2023-09-12T10:38:29;25.20;1.00
15364;DHT22;7781;49.690;6.472;2023-09-12T10:40:59;25.20;1.00
15364;DHT22;7781;49.690;6.472;2023-09-12T10:43:32;25.30;1.00
15364;DHT22;7781;49.690;6.472;2023-09-12T10:46:04;25.30;1.00
15364;DHT22;7781;49.690;6.472;2023-09-12T10:48:35;25.40;99.90
15364;DHT22;7781;49.690;6.472;2023-09-12T10:51:04;25.40;1.00
15364;DHT22;7781;49.690;6.472;2023-09-12T10:53:33;25.70;1.00
15364;DHT22;7781;49.690;6.472;2023-09-12T10:56:16;26.10;99.90
15364;DHT22;7781;49.690;6.472;2023-09-12T10:59:12;26.50;1.00
15364;DHT22;7781;49.690;6.472;2023-09-12T11:01:43;26.70;1.00
15364;DHT22;7781;49.690;6.472;2023-09-12T11:04:30;26.90;1.00
15364;DHT22;7781;49.690;6.472;2023-09-12T11:07:01;26.90;32.70
15364;DHT22;7781;49.690;6.472;2023-09-12T11:09:30;27.20;1.00
15364;DHT22;7781;49.690;6.472;2023-09-12T11:12:02;27.30;1.00
15364;DHT22;7781;49.690;6.472;2023-09-12T11:14:32;27.40;99.90
15364;DHT22;7781;49.690;6.472;2023-09-12T11:17:22;27.50;99.90
15364;DHT22;7781;49.690;6.472;2023-09-12T11:19:52;27.60;99.90
15364;DHT22;7781;49.690;6.472;2023-09-12T11:22:25;27.80;74.90
15364;DHT22;7781;49.690;6.472;2023-09-12T11:24:56;27.80;64.50
15364;DHT22;7781;49.690;6.472;2023-09-12T11:27:31;28.00;1.00
15364;DHT22;7781;49.690;6.472;2023-09-12T11:30:05;28.10;1.00
15364;DHT22;7781;49.690;6.472;2023-09-12T11:32:37;28.30;1.00
15364;DHT22;7781;49.690;6.472;2023-09-12T11:35:07;28.50;1.00
15364;DHT22;7781;49.690;6.472;2023-09-12T11:37:38;28.40;1.00
15364;DHT22;7781;49.690;6.472;2023-09-12T11:40:22;28.90;1.00
15364;DHT22;7781;49.690;6.472;2023-09-12T11:42:51;29.10;99.90
15364;DHT22;7781;49.690;6.472;2023-09-12T11:45:26;29.20;99.90
15364;DHT22;7781;49.690;6.472;2023-09-12T11:47:58;29.40;99.90
15364;DHT22;7781;49.690;6.472;2023-09-12T11:50:32;29.30;99.90
15364;DHT22;7781;49.690;6.472;2023-09-12T11:53:02;29.50;99.90
15364;DHT22;7781;49.690;6.472;2023-09-12T11:55:34;29.40;99.90
15364;DHT22;7781;49.690;6.472;2023-09-12T11:58:06;29.50;99.90
15364;DHT22;7781;49.690;6.472;2023-09-12T12:00:35;29.90;99.90
15364;DHT22;7781;49.690;6.472;2023-09-12T12:03:06;30.30;99.90
15364;DHT22;7781;49.690;6.472;2023-09-12T12:05:35;30.80;99.90
15364;DHT22;7781;49.690;6.472;2023-09-12T12:08:07;31.20;35.40
15364;DHT22;7781;49.690;6.472;2023-09-12T12:10:57;31.40;14.70
15364;DHT22;7781;49.690;6.472;2023-09-12T12:13:28;31.90;1.00
15364;DHT22;7781;49.690;6.472;2023-09-12T12:15:57;32.00;1.00
15364;DHT22;7781;49.690;6.472;2023-09-12T12:18:27;32.00;1.00
15364;DHT22;7781;49.690;6.472;2023-09-12T12:20:56;32.10;1.00
15364;DHT22;7781;49.690;6.472;2023-09-12T12:23:26;32.00;1.00
15364;DHT22;7781;49.690;6.472;2023-09-12T12:26:05;31.80;1.00
15364;DHT22;7781;49.690;6.472;2023-09-12T12:28:35;31.80;1.00
15364;DHT22;7781;49.690;6.472;2023-09-12T12:31:04;31.60;1.00
15364;DHT22;7781;49.690;6.472;2023-09-12T12:33:35;31.40;1.00
15364;DHT22;7781;49.690;6.472;2023-09-12T12:36:24;31.40;1.00
15364;DHT22;7781;49.690;6.472;2023-09-12T12:38:53;31.00;1.00
15364;DHT22;7781;49.690;6.472;2023-09-12T12:41:42;30.90;1.00
15364;DHT22;7781;49.690;6.472;2023-09-12T12:44:18;30.60;1.00
15364;DHT22;7781;49.690;6.472;2023-09-12T12:46:51;30.40;1.00
15364;DHT22;7781;49.690;6.472;2023-09-12T12:49:22;30.10;1.00
15364;DHT22;7781;49.690;6.472;2023-09-12T12:51:53;29.60;1.00
15364;DHT22;7781;49.690;6.472;2023-09-12T12:54:24;30.10;1.00
15364;DHT22;7781;49.690;6.472;2023-09-12T12:56:53;30.50;1.00
15364;DHT22;7781;49.690;6.472;2023-09-12T12:59:21;31.00;1.00
15364;DHT22;7781;49.690;6.472;2023-09-12T13:01:51;31.40;1.00
15364;DHT22;7781;49.690;6.472;2023-09-12T13:04:20;31.90;1.00
15364;DHT22;7781;49.690;6.472;2023-09-12T13:06:50;31.90;1.00
15364;DHT22;7781;49.690;6.472;2023-09-12T13:09:19;31.90;1.00
15364;DHT22;7781;49.690;6.472;2023-09-12T13:11:50;32.20;1.00
15364;DHT22;7781;49.690;6.472;2023-09-12T13:14:19;32.70;1.00
15364;DHT22;7781;49.690;6.472;2023-09-12T13:16:53;33.20;1.00
15364;DHT22;7781;49.690;6.472;2023-09-12T13:19:23;33.10;1.00
15364;DHT22;7781;49.690;6.472;2023-09-12T13:21:53;32.90;1.00
15364;DHT22;7781;49.690;6.472;2023-09-12T13:24:22;32.90;1.00
15364;DHT22;7781;49.690;6.472;2023-09-12T13:26:53;33.10;1.00
15364;DHT22;7781;49.690;6.472;2023-09-12T13:29:21;33.10;1.00
15364;DHT22;7781;49.690;6.472;2023-09-12T13:31:51;32.90;1.00
15364;DHT22;7781;49.690;6.472;2023-09-12T13:34:23;33.00;1.00
15364;DHT22;7781;49.690;6.472;2023-09-12T13:36:53;33.10;1.00
15364;DHT22;7781;49.690;6.472;2023-09-12T13:39:39;32.70;1.00
15364;DHT22;7781;49.690;6.472;2023-09-12T13:42:08;31.90;1.00
15364;DHT22;7781;49.690;6.472;2023-09-12T13:44:37;31.60;1.00
15364;DHT22;7781;49.690;6.472;2023-09-12T13:47:06;31.70;1.00
15364;DHT22;7781;49.690;6.472;2023-09-12T13:49:36;31.90;1.00
15364;DHT22;7781;49.690;6.472;2023-09-12T13:52:06;32.10;1.00
15364;DHT22;7781;49.690;6.472;2023-09-12T13:54:35;32.00;1.00
15364;DHT22;7781;49.690;6.472;2023-09-12T13:57:05;32.00;1.00
15364;DHT22;7781;49.690;6.472;2023-09-12T13:59:34;31.70;1.00
15364;DHT22;7781;49.690;6.472;2023-09-12T14:02:12;31.40;1.00
15364;DHT22;7781;49.690;6.472;2023-09-12T14:04:41;31.20;1.00
15364;DHT22;7781;49.690;6.472;2023-09-12T14:07:13;31.10;1.00
15364;DHT22;7781;49.690;6.472;2023-09-12T14:09:42;31.00;1.00
15364;DHT22;7781;49.690;6.472;2023-09-12T14:12:12;30.70;1.00
15364;DHT22;7781;49.690;6.472;2023-09-12T14:14:53;30.60;1.00
15364;DHT22;7781;49.690;6.472;2023-09-12T14:17:34;30.50;1.00
15364;DHT22;7781;49.690;6.472;2023-09-12T14:20:12;30.50;1.00
15364;DHT22;7781;49.690;6.472;2023-09-12T14:22:45;30.20;1.00
15364;DHT22;7781;49.690;6.472;2023-09-12T14:25:14;29.90;1.00
15364;DHT22;7781;49.690;6.472;2023-09-12T14:27:45;29.70;1.00
15364;DHT22;7781;49.690;6.472;2023-09-12T14:30:14;29.70;1.00
15364;DHT22;7781;49.690;6.472;2023-09-12T14:32:43;29.80;1.00
15364;DHT22;7781;49.690;6.472;2023-09-12T14:35:13;29.70;1.00
15364;DHT22;7781;49.690;6.472;2023-09-12T14:37:42;29.60;1.00
15364;DHT22;7781;49.690;6.472;2023-09-12T14:40:13;29.40;1.00
15364;DHT22;7781;49.690;6.472;2023-09-12T14:42:46;29.30;1.00
15364;DHT22;7781;49.690;6.472;2023-09-12T14:45:16;29.20;1.00
15364;DHT22;7781;49.690;6.472;2023-09-12T14:47:45;29.20;1.00
15364;DHT22;7781;49.690;6.472;2023-09-12T14:50:15;29.40;1.00
15364;DHT22;7781;49.690;6.472;2023-09-12T14:53:08;29.30;1.00
15364;DHT22;7781;49.690;6.472;2023-09-12T14:55:42;29.20;1.00
15364;DHT22;7781;49.690;6.472;2023-09-12T14:58:11;29.30;1.00
15364;DHT22;7781;49.690;6.472;2023-09-12T15:00:43;29.10;1.00
15364;DHT22;7781;49.690;6.472;2023-09-12T15:03:11;29.10;1.00
15364;DHT22;7781;49.690;6.472;2023-09-12T15:05:42;29.20;1.00
15364;DHT22;7781;49.690;6.472;2023-09-12T15:08:12;29.50;1.00
15364;DHT22;7781;49.690;6.472;2023-09-12T15:10:44;29.60;1.00
15364;DHT22;7781;49.690;6.472;2023-09-12T15:13:13;29.70;1.00
15364;DHT22;7781;49.690;6.472;2023-09-12T15:15:42;29.80;1.00
15364;DHT22;7781;49.690;6.472;2023-09-12T15:18:11;29.80;1.00
15364;DHT22;7781;49.690;6.472;2023-09-12T15:20:41;29.80;1.00
15364;DHT22;7781;49.690;6.472;2023-09-12T15:23:10;29.80;1.00
15364;DHT22;7781;49.690;6.472;2023-09-12T15:25:41;29.70;1.00
15364;DHT22;7781;49.690;6.472;2023-09-12T15:28:12;29.70;1.00
15364;DHT22;7781;49.690;6.472;2023-09-12T15:30:41;29.50;30.60
15364;DHT22;7781;49.690;6.472;2023-09-12T15:33:09;29.20;11.40
15364;DHT22;7781;49.690;6.472;2023-09-12T15:35:38;29.10;1.00
15364;DHT22;7781;49.690;6.472;2023-09-12T15:38:07;28.90;1.00
15364;DHT22;7781;49.690;6.472;2023-09-12T15:40:38;28.80;1.00
15364;DHT22;7781;49.690;6.472;2023-09-12T15:43:06;28.50;75.20
15364;DHT22;7781;49.690;6.472;2023-09-12T15:45:51;28.40;99.90
15364;DHT22;7781;49.690;6.472;2023-09-12T15:48:21;28.30;1.00
15364;DHT22;7781;49.690;6.472;2023-09-12T15:50:51;28.10;1.00
15364;DHT22;7781;49.690;6.472;2023-09-12T15:53:23;27.50;1.00
15364;DHT22;7781;49.690;6.472;2023-09-12T15:55:52;27.30;99.90
15364;DHT22;7781;49.690;6.472;2023-09-12T15:58:21;27.10;1.00
15364;DHT22;7781;49.690;6.472;2023-09-12T16:00:54;27.00;26.50
15364;DHT22;7781;49.690;6.472;2023-09-12T16:03:25;26.90;99.90
15364;DHT22;7781;49.690;6.472;2023-09-12T16:05:54;26.80;99.90
15364;DHT22;7781;49.690;6.472;2023-09-12T16:08:26;26.50;68.20
15364;DHT22;7781;49.690;6.472;2023-09-12T16:10:59;26.10;99.90
15364;DHT22;7781;49.690;6.472;2023-09-12T16:13:29;25.80;99.90
15364;DHT22;7781;49.690;6.472;2023-09-12T16:16:00;25.50;1.00
15364;DHT22;7781;49.690;6.472;2023-09-12T16:18:28;25.20;1.00
15364;DHT22;7781;49.690;6.472;2023-09-12T16:20:58;24.80;99.90
15364;DHT22;7781;49.690;6.472;2023-09-12T16:23:27;24.70;1.00
15364;DHT22;7781;49.690;6.472;2023-09-12T16:25:59;24.40;1.00
15364;DHT22;7781;49.690;6.472;2023-09-12T16:28:28;23.50;1.00
15364;DHT22;7781;49.690;6.472;2023-09-12T16:30:56;23.20;1.00